sensor_id;sensor_type;location;lat;lon;timestamp;pressure;altitude;pressure_sealevel;temperature;humidity
2785;BME280;57944;48.722;9.316;2023-05-22T00:01:55;97657.75;;;13.76;100.00
2785;BME280;57944;48.722;9.316;2023-05-22T00:04:29;97659.41;;;13.70;100.00
2785;BME280;57944;48.722;9.316;2023-05-22T00:07:00;97664.75;;;13.69;100.00
2785;BME280;57944;48.722;9.316;2023-05-22T00:09:31;97655.59;;;13.49;100.00
2785;BME280;57944;48.722;9.316;2023-05-22T00:12:02;97658.28;;;13.54;100.00
2785;BME280;57944;48.722;9.316;2023-05-22T00:14:33;97657.13;;;13.50;100.00
2785;BME280;57944;48.722;9.316;2023-05-22T00:17:04;97653.34;;;13.41;100.00
2785;BME280;57944;48.722;9.316;2023-05-22T00:19:39;97652.41;;;13.35;100.00
2785;BME280;57944;48.722;9.316;2023-05-22T00:22:10;97658.44;;;13.41;100.00
2785;BME280;57944;48.722;9.316;2023-05-22T00:24:41;97646.88;;;13.38;100.00
2785;BME280;57944;48.722;9.316;2023-05-22T00:27:12;97649.84;;;13.35;100.00
2785;BME280;57944;48.722;9.316;2023-05-22T00:29:43;97651.06;;;13.33;100.00
2785;BME280;57944;48.722;9.316;2023-05-22T00:32:14;97644.81;;;13.29;100.00
2785;BME280;57944;48.722;9.316;2023-05-22T00:34:48;97646.53;;;13.16;100.00
2785;BME280;57944;48.722;9.316;2023-05-22T00:37:19;97642.28;;;13.10;100.00
2785;BME280;57944;48.722;9.316;2023-05-22T00:39:50;97645.94;;;13.14;100.00
2785;BME280;57944;48.722;9.316;2023-05-22T00:42:22;97643.06;;;13.11;100.00
2785;BME280;57944;48.722;9.316;2023-05-22T00:44:53;97648.50;;;13.14;100.00
2785;BME280;57944;48.722;9.316;2023-05-22T00:47:24;97648.81;;;13.06;100.00
2785;BME280;57944;48.722;9.316;2023-05-22T00:49:58;97646.00;;;12.96;100.00
2785;BME280;57944;48.722;9.316;2023-05-22T00:52:29;97643.59;;;13.01;100.00
2785;BME280;57944;48.722;9.316;2023-05-22T00:55:00;97642.34;;;13.04;100.00
2785;BME280;57944;48.722;9.316;2023-05-22T00:57:31;97646.69;;;13.03;100.00
2785;BME280;57944;48.722;9.316;2023-05-22T01:00:04;97644.22;;;12.96;100.00
2785;BME280;57944;48.722;9.316;2023-05-22T01:02:35;97648.75;;;12.94;100.00
2785;BME280;57944;48.722;9.316;2023-05-22T01:05:12;97657.00;;;12.96;100.00
2785;BME280;57944;48.722;9.316;2023-05-22T01:07:45;97655.31;;;12.90;100.00
2785;BME280;57944;48.722;9.316;2023-05-22T01:10:15;97654.41;;;12.85;100.00
2785;BME280;57944;48.722;9.316;2023-05-22T01:12:54;97661.63;;;12.88;100.00
2785;BME280;57944;48.722;9.316;2023-05-22T01:15:34;97656.28;;;12.89;100.00
2785;BME280;57944;48.722;9.316;2023-05-22T01:18:11;97666.72;;;13.06;100.00
2785;BME280;57944;48.722;9.316;2023-05-22T01:20:53;97661.44;;;13.19;100.00
2785;BME280;57944;48.722;9.316;2023-05-22T01:23:48;97664.03;;;13.01;100.00
2785;BME280;57944;48.722;9.316;2023-05-22T01:26:53;97668.38;;;12.82;100.00
2785;BME280;57944;48.722;9.316;2023-05-22T01:29:36;97665.41;;;12.85;100.00
2785;BME280;57944;48.722;9.316;2023-05-22T01:32:19;97669.25;;;12.76;100.00
2785;BME280;57944;48.722;9.316;2023-05-22T01:34:54;97660.50;;;12.65;100.00
2785;BME280;57944;48.722;9.316;2023-05-22T01:37:27;97672.28;;;12.66;100.00
2785;BME280;57944;48.722;9.316;2023-05-22T01:39:58;97662.47;;;12.63;100.00
2785;BME280;57944;48.722;9.316;2023-05-22T01:42:30;97667.00;;;12.61;100.00
2785;BME280;57944;48.722;9.316;2023-05-22T01:45:01;97674.47;;;12.63;100.00
2785;BME280;57944;48.722;9.316;2023-05-22T01:47:35;97683.13;;;12.62;100.00
2785;BME280;57944;48.722;9.316;2023-05-22T01:50:07;97674.84;;;12.66;100.00
2785;BME280;57944;48.722;9.316;2023-05-22T01:52:43;97672.28;;;12.66;100.00
2785;BME280;57944;48.722;9.316;2023-05-22T01:55:23;97672.28;;;12.66;100.00
2785;BME280;57944;48.722;9.316;2023-05-22T01:57:58;97688.03;;;12.63;100.00
2785;BME280;57944;48.722;9.316;2023-05-22T02:00:31;97688.91;;;12.57;100.00
2785;BME280;57944;48.722;9.316;2023-05-22T02:03:07;97688.47;;;12.60;100.00
2785;BME280;57944;48.722;9.316;2023-05-22T02:05:43;97691.19;;;12.65;100.00
2785;BME280;57944;48.722;9.316;2023-05-22T02:08:15;97678.16;;;12.67;100.00
2785;BME280;57944;48.722;9.316;2023-05-22T02:10:48;97680.38;;;12.63;100.00
2785;BME280;57944;48.722;9.316;2023-05-22T02:13:21;97685.91;;;12.60;100.00
2785;BME280;57944;48.722;9.316;2023-05-22T02:15:53;97692.03;;;12.59;100.00
2785;BME280;57944;48.722;9.316;2023-05-22T02:18:28;97686.13;;;12.59;100.00
2785;BME280;57944;48.722;9.316;2023-05-22T02:20:59;97684.56;;;12.58;100.00
2785;BME280;57944;48.722;9.316;2023-05-22T02:23:35;97683.91;;;12.44;100.00
2785;BME280;57944;48.722;9.316;2023-05-22T02:26:06;97680.75;;;12.42;100.00
2785;BME280;57944;48.722;9.316;2023-05-22T02:28:36;97682.91;;;12.45;100.00
2785;BME280;57944;48.722;9.316;2023-05-22T02:31:09;97686.34;;;12.57;100.00
2785;BME280;57944;48.722;9.316;2023-05-22T02:33:43;97679.47;;;12.76;100.00
2785;BME280;57944;48.722;9.316;2023-05-22T02:36:14;97677.25;;;12.80;100.00
2785;BME280;57944;48.722;9.316;2023-05-22T02:38:47;97683.44;;;12.72;100.00
2785;BME280;57944;48.722;9.316;2023-05-22T02:41:17;97674.97;;;12.71;100.00
2785;BME280;57944;48.722;9.316;2023-05-22T02:43:48;97678.81;;;12.81;100.00
2785;BME280;57944;48.722;9.316;2023-05-22T02:46:19;97682.72;;;12.83;100.00
2785;BME280;57944;48.722;9.316;2023-05-22T02:48:53;97680.66;;;12.92;100.00
2785;BME280;57944;48.722;9.316;2023-05-22T02:51:23;97682.94;;;13.00;100.00
2785;BME280;57944;48.722;9.316;2023-05-22T02:53:54;97684.50;;;13.01;100.00
2785;BME280;57944;48.722;9.316;2023-05-22T02:56:25;97686.22;;;13.07;100.00
2785;BME280;57944;48.722;9.316;2023-05-22T02:58:57;97687.34;;;13.30;100.00
2785;BME280;57944;48.722;9.316;2023-05-22T03:01:29;97683.78;;;13.61;100.00
2785;BME280;57944;48.722;9.316;2023-05-22T03:04:04;97682.69;;;13.69;100.00
2785;BME280;57944;48.722;9.316;2023-05-22T03:06:35;97687.81;;;13.69;100.00
2785;BME280;57944;48.722;9.316;2023-05-22T03:09:06;97691.16;;;13.81;100.00
2785;BME280;57944;48.722;9.316;2023-05-22T03:11:38;97692.06;;;13.86;100.00
2785;BME280;57944;48.722;9.316;2023-05-22T03:14:09;97692.97;;;13.80;100.00
2785;BME280;57944;48.722;9.316;2023-05-22T03:16:40;97693.84;;;13.74;100.00
2785;BME280;57944;48.722;9.316;2023-05-22T03:19:14;97683.94;;;13.90;100.00
2785;BME280;57944;48.722;9.316;2023-05-22T03:21:45;97685.41;;;13.97;100.00
2785;BME280;57944;48.722;9.316;2023-05-22T03:24:16;97684.19;;;13.88;100.00
2785;BME280;57944;48.722;9.316;2023-05-22T03:26:47;97695.06;;;13.83;100.00
2785;BME280;57944;48.722;9.316;2023-05-22T03:29:25;97696.59;;;13.73;100.00
2785;BME280;57944;48.722;9.316;2023-05-22T03:31:56;97706.97;;;13.78;100.00
2785;BME280;57944;48.722;9.316;2023-05-22T03:34:32;97713.56;;;13.74;100.00
2785;BME280;57944;48.722;9.316;2023-05-22T03:37:05;97713.28;;;13.63;100.00
2785;BME280;57944;48.722;9.316;2023-05-22T03:39:36;97722.97;;;13.61;100.00
2785;BME280;57944;48.722;9.316;2023-05-22T03:42:20;97716.88;;;13.62;100.00
2785;BME280;57944;48.722;9.316;2023-05-22T03:44:51;97725.97;;;13.58;100.00
2785;BME280;57944;48.722;9.316;2023-05-22T03:47:21;97716.88;;;13.62;100.00
2785;BME280;57944;48.722;9.316;2023-05-22T03:49:55;97722.31;;;13.66;100.00
2785;BME280;57944;48.722;9.316;2023-05-22T03:52:27;97717.84;;;13.61;100.00
2785;BME280;57944;48.722;9.316;2023-05-22T03:54:58;97713.13;;;13.47;100.00
2785;BME280;57944;48.722;9.316;2023-05-22T03:57:30;97716.59;;;13.52;100.00
2785;BME280;57944;48.722;9.316;2023-05-22T04:00:01;97708.13;;;13.52;100.00
2785;BME280;57944;48.722;9.316;2023-05-22T04:02:42;97712.03;;;13.54;100.00
2785;BME280;57944;48.722;9.316;2023-05-22T04:05:17;97717.28;;;13.59;100.00
2785;BME280;57944;48.722;9.316;2023-05-22T04:07:49;97712.16;;;13.59;100.00
2785;BME280;57944;48.722;9.316;2023-05-22T04:10:20;97717.84;;;13.61;100.00
2785;BME280;57944;48.722;9.316;2023-05-22T04:12:52;97727.50;;;13.59;100.00
2785;BME280;57944;48.722;9.316;2023-05-22T04:15:23;97725.88;;;13.65;100.00
2785;BME280;57944;48.722;9.316;2023-05-22T04:17:53;97725.09;;;13.64;100.00
2785;BME280;57944;48.722;9.316;2023-05-22T04:20:27;97724.91;;;13.78;100.00
2785;BME280;57944;48.722;9.316;2023-05-22T04:22:58;97729.28;;;13.89;100.00
2785;BME280;57944;48.722;9.316;2023-05-22T04:25:30;97725.84;;;13.95;100.00
2785;BME280;57944;48.722;9.316;2023-05-22T04:28:01;97728.88;;;14.04;100.00
2785;BME280;57944;48.722;9.316;2023-05-22T04:30:32;97726.06;;;13.94;100.00
2785;BME280;57944;48.722;9.316;2023-05-22T04:33:04;97728.66;;;14.17;100.00
2785;BME280;57944;48.722;9.316;2023-05-22T04:35:39;97730.59;;;14.45;100.00
2785;BME280;57944;48.722;9.316;2023-05-22T04:38:10;97736.75;;;14.56;100.00
2785;BME280;57944;48.722;9.316;2023-05-22T04:40:45;97739.53;;;14.78;100.00
2785;BME280;57944;48.722;9.316;2023-05-22T04:43:16;97738.16;;;15.11;100.00
2785;BME280;57944;48.722;9.316;2023-05-22T04:45:50;97738.53;;;15.31;100.00
2785;BME280;57944;48.722;9.316;2023-05-22T04:48:21;97744.16;;;15.57;100.00
2785;BME280;57944;48.722;9.316;2023-05-22T04:50:55;97742.03;;;15.94;100.00
2785;BME280;57944;48.722;9.316;2023-05-22T04:53:29;97740.91;;;16.41;100.00
2785;BME280;57944;48.722;9.316;2023-05-22T04:56:00;97742.38;;;16.70;100.00
2785;BME280;57944;48.722;9.316;2023-05-22T04:58:31;97748.00;;;17.06;100.00
2785;BME280;57944;48.722;9.316;2023-05-22T05:01:05;97741.13;;;17.34;100.00
2785;BME280;57944;48.722;9.316;2023-05-22T05:03:36;97744.81;;;17.43;100.00
2785;BME280;57944;48.722;9.316;2023-05-22T05:06:11;97753.81;;;17.90;100.00
2785;BME280;57944;48.722;9.316;2023-05-22T05:08:43;97751.09;;;18.34;100.00
2785;BME280;57944;48.722;9.316;2023-05-22T05:11:16;97746.88;;;18.65;100.00
2785;BME280;57944;48.722;9.316;2023-05-22T05:13:48;97748.06;;;18.84;100.00
2785;BME280;57944;48.722;9.316;2023-05-22T05:16:19;97756.97;;;19.09;100.00
2785;BME280;57944;48.722;9.316;2023-05-22T05:18:50;97750.13;;;19.60;100.00
2785;BME280;57944;48.722;9.316;2023-05-22T05:21:25;97750.47;;;20.15;100.00
2785;BME280;57944;48.722;9.316;2023-05-22T05:23:59;97751.50;;;20.14;100.00
2785;BME280;57944;48.722;9.316;2023-05-22T05:26:30;97741.66;;;19.80;100.00
2785;BME280;57944;48.722;9.316;2023-05-22T05:29:01;97742.56;;;19.38;100.00
2785;BME280;57944;48.722;9.316;2023-05-22T05:31:38;97749.72;;;19.11;100.00
2785;BME280;57944;48.722;9.316;2023-05-22T05:34:15;97740.25;;;18.74;100.00
2785;BME280;57944;48.722;9.316;2023-05-22T05:37:11;97739.44;;;19.21;100.00
2785;BME280;57944;48.722;9.316;2023-05-22T05:39:43;97736.47;;;19.70;100.00
2785;BME280;57944;48.722;9.316;2023-05-22T05:42:14;97743.75;;;19.99;100.00
2785;BME280;57944;48.722;9.316;2023-05-22T05:44:47;97745.31;;;20.20;100.00
2785;BME280;57944;48.722;9.316;2023-05-22T05:47:19;97747.00;;;20.86;96.14
2785;BME280;57944;48.722;9.316;2023-05-22T05:49:53;97742.44;;;21.38;89.91
2785;BME280;57944;48.722;9.316;2023-05-22T05:52:30;97743.88;;;21.59;86.82
2785;BME280;57944;48.722;9.316;2023-05-22T05:55:08;97744.03;;;22.07;81.17
2785;BME280;57944;48.722;9.316;2023-05-22T05:57:40;97742.78;;;22.34;78.65
2785;BME280;57944;48.722;9.316;2023-05-22T06:00:18;97753.56;;;22.51;75.26
2785;BME280;57944;48.722;9.316;2023-05-22T06:02:51;97757.50;;;22.44;76.86
2785;BME280;57944;48.722;9.316;2023-05-22T06:05:36;97750.38;;;23.08;71.92
2785;BME280;57944;48.722;9.316;2023-05-22T06:08:25;97760.22;;;23.11;69.36
2785;BME280;57944;48.722;9.316;2023-05-22T06:10:56;97765.59;;;23.38;69.32
2785;BME280;57944;48.722;9.316;2023-05-22T06:13:33;97761.88;;;23.63;65.77
2785;BME280;57944;48.722;9.316;2023-05-22T06:16:04;97755.81;;;23.49;67.08
2785;BME280;57944;48.722;9.316;2023-05-22T06:18:35;97756.63;;;23.26;68.65
2785;BME280;57944;48.722;9.316;2023-05-22T06:21:07;97756.16;;;23.42;71.46
2785;BME280;57944;48.722;9.316;2023-05-22T06:23:41;97759.69;;;23.90;64.79
2785;BME280;57944;48.722;9.316;2023-05-22T06:26:12;97760.78;;;24.02;63.18
2785;BME280;57944;48.722;9.316;2023-05-22T06:28:44;97761.03;;;24.66;59.55
2785;BME280;57944;48.722;9.316;2023-05-22T06:31:15;97755.16;;;25.30;55.93
2785;BME280;57944;48.722;9.316;2023-05-22T06:33:48;97756.50;;;25.63;54.19
2785;BME280;57944;48.722;9.316;2023-05-22T06:36:20;97755.22;;;25.97;53.28
2785;BME280;57944;48.722;9.316;2023-05-22T06:38:55;97752.47;;;26.25;51.90
2785;BME280;57944;48.722;9.316;2023-05-22T06:41:46;97748.53;;;26.76;50.38
2785;BME280;57944;48.722;9.316;2023-05-22T06:44:17;97751.84;;;26.50;50.25
2785;BME280;57944;48.722;9.316;2023-05-22T06:46:53;97754.34;;;26.64;50.41
2785;BME280;57944;48.722;9.316;2023-05-22T06:49:25;97748.16;;;27.00;48.84
2785;BME280;57944;48.722;9.316;2023-05-22T06:51:57;97747.13;;;27.71;47.27
2785;BME280;57944;48.722;9.316;2023-05-22T06:54:34;97749.75;;;28.05;46.84
2785;BME280;57944;48.722;9.316;2023-05-22T06:57:05;97749.31;;;27.95;46.41
2785;BME280;57944;48.722;9.316;2023-05-22T06:59:37;97758.75;;;28.34;45.90
2785;BME280;57944;48.722;9.316;2023-05-22T07:02:23;97753.59;;;27.91;46.45
2785;BME280;57944;48.722;9.316;2023-05-22T07:05:17;97754.81;;;28.02;46.40
2785;BME280;57944;48.722;9.316;2023-05-22T07:07:54;97757.50;;;29.08;44.32
2785;BME280;57944;48.722;9.316;2023-05-22T07:10:28;97757.03;;;29.57;42.92
2785;BME280;57944;48.722;9.316;2023-05-22T07:12:59;97764.84;;;29.87;42.20
2785;BME280;57944;48.722;9.316;2023-05-22T07:15:32;97752.25;;;29.92;42.49
2785;BME280;57944;48.722;9.316;2023-05-22T07:18:05;97760.81;;;30.59;40.54
2785;BME280;57944;48.722;9.316;2023-05-22T07:20:39;97766.41;;;30.58;41.13
2785;BME280;57944;48.722;9.316;2023-05-22T07:23:17;97762.81;;;31.39;39.54
2785;BME280;57944;48.722;9.316;2023-05-22T07:25:53;97762.34;;;31.78;38.28
2785;BME280;57944;48.722;9.316;2023-05-22T07:28:29;97758.75;;;31.70;39.06
2785;BME280;57944;48.722;9.316;2023-05-22T07:31:06;97757.28;;;31.85;38.83
2785;BME280;57944;48.722;9.316;2023-05-22T07:33:37;97756.41;;;32.41;37.52
2785;BME280;57944;48.722;9.316;2023-05-22T07:36:09;97764.38;;;32.76;37.21
2785;BME280;57944;48.722;9.316;2023-05-22T07:38:41;97764.75;;;32.75;37.06
2785;BME280;57944;48.722;9.316;2023-05-22T07:41:16;97762.53;;;32.77;37.13
2785;BME280;57944;48.722;9.316;2023-05-22T07:43:46;97759.78;;;32.89;37.51
2785;BME280;57944;48.722;9.316;2023-05-22T07:46:22;97756.81;;;32.43;37.11
2785;BME280;57944;48.722;9.316;2023-05-22T07:49:03;97756.91;;;32.62;36.65
2785;BME280;57944;48.722;9.316;2023-05-22T07:51:35;97753.94;;;32.80;36.74
2785;BME280;57944;48.722;9.316;2023-05-22T07:54:09;97751.88;;;33.44;36.21
2785;BME280;57944;48.722;9.316;2023-05-22T07:56:44;97748.03;;;34.49;34.37
2785;BME280;57944;48.722;9.316;2023-05-22T07:59:17;97756.13;;;35.13;33.16
2785;BME280;57944;48.722;9.316;2023-05-22T08:01:49;97757.38;;;35.53;32.89
2785;BME280;57944;48.722;9.316;2023-05-22T08:04:20;97755.88;;;35.55;32.52
2785;BME280;57944;48.722;9.316;2023-05-22T08:06:51;97748.56;;;36.20;31.42
2785;BME280;57944;48.722;9.316;2023-05-22T08:09:22;97748.25;;;36.84;30.41
2785;BME280;57944;48.722;9.316;2023-05-22T08:11:55;97750.25;;;37.05;30.71
2785;BME280;57944;48.722;9.316;2023-05-22T08:14:26;97752.00;;;36.76;30.64
2785;BME280;57944;48.722;9.316;2023-05-22T08:16:57;97754.09;;;37.15;29.93
2785;BME280;57944;48.722;9.316;2023-05-22T08:19:28;97751.78;;;37.06;29.86
2785;BME280;57944;48.722;9.316;2023-05-22T08:21:59;97741.66;;;36.56;30.56
2785;BME280;57944;48.722;9.316;2023-05-22T08:24:30;97746.09;;;36.00;31.21
2785;BME280;57944;48.722;9.316;2023-05-22T08:27:04;97744.09;;;36.28;31.01
2785;BME280;57944;48.722;9.316;2023-05-22T08:29:38;97745.53;;;36.77;30.58
2785;BME280;57944;48.722;9.316;2023-05-22T08:32:09;97749.16;;;37.17;29.99
2785;BME280;57944;48.722;9.316;2023-05-22T08:34:39;97737.25;;;38.16;29.22
2785;BME280;57944;48.722;9.316;2023-05-22T08:37:12;97735.31;;;38.16;29.04
2785;BME280;57944;48.722;9.316;2023-05-22T08:39:43;97736.44;;;37.62;29.69
2785;BME280;57944;48.722;9.316;2023-05-22T08:42:17;97727.56;;;36.04;31.69
2785;BME280;57944;48.722;9.316;2023-05-22T08:44:48;97733.47;;;35.87;31.72
2785;BME280;57944;48.722;9.316;2023-05-22T08:47:19;97730.44;;;35.51;32.66
2785;BME280;57944;48.722;9.316;2023-05-22T08:49:52;97732.22;;;34.79;33.67
2785;BME280;57944;48.722;9.316;2023-05-22T08:52:31;97729.97;;;34.81;33.68
2785;BME280;57944;48.722;9.316;2023-05-22T08:55:04;97734.47;;;34.77;34.66
2785;BME280;57944;48.722;9.316;2023-05-22T08:57:38;97737.69;;;34.40;34.68
2785;BME280;57944;48.722;9.316;2023-05-22T09:00:11;97735.31;;;33.27;37.03
2785;BME280;57944;48.722;9.316;2023-05-22T09:02:42;97737.41;;;32.67;37.63
2785;BME280;57944;48.722;9.316;2023-05-22T09:05:14;97731.63;;;32.77;37.47
2785;BME280;57944;48.722;9.316;2023-05-22T09:07:45;97741.50;;;32.17;38.15
2785;BME280;57944;48.722;9.316;2023-05-22T09:10:16;97734.66;;;31.56;38.94
2785;BME280;57944;48.722;9.316;2023-05-22T09:13:04;97737.63;;;31.26;40.32
2785;BME280;57944;48.722;9.316;2023-05-22T09:15:36;97724.94;;;30.67;41.83
2785;BME280;57944;48.722;9.316;2023-05-22T09:18:07;97729.78;;;31.98;39.71
2785;BME280;57944;48.722;9.316;2023-05-22T09:20:38;97735.75;;;32.94;38.00
2785;BME280;57944;48.722;9.316;2023-05-22T09:23:13;97735.38;;;32.28;38.82
2785;BME280;57944;48.722;9.316;2023-05-22T09:25:44;97731.88;;;31.93;39.72
2785;BME280;57944;48.722;9.316;2023-05-22T09:28:18;97727.81;;;30.25;42.19
2785;BME280;57944;48.722;9.316;2023-05-22T09:30:49;97722.09;;;30.72;41.81
2785;BME280;57944;48.722;9.316;2023-05-22T09:33:21;97733.50;;;30.27;43.25
2785;BME280;57944;48.722;9.316;2023-05-22T09:35:52;97731.84;;;29.89;43.45
2785;BME280;57944;48.722;9.316;2023-05-22T09:38:26;97726.81;;;29.30;44.66
2785;BME280;57944;48.722;9.316;2023-05-22T09:40:58;97726.63;;;30.35;42.65
2785;BME280;57944;48.722;9.316;2023-05-22T09:43:33;97728.44;;;31.76;40.30
2785;BME280;57944;48.722;9.316;2023-05-22T09:46:03;97725.91;;;32.75;38.42
2785;BME280;57944;48.722;9.316;2023-05-22T09:48:34;97725.44;;;34.82;35.02
2785;BME280;57944;48.722;9.316;2023-05-22T09:51:06;97723.59;;;34.56;35.41
2785;BME280;57944;48.722;9.316;2023-05-22T09:53:38;97719.22;;;35.27;34.25
2785;BME280;57944;48.722;9.316;2023-05-22T09:56:13;97722.47;;;35.85;33.67
2785;BME280;57944;48.722;9.316;2023-05-22T09:59:00;97722.59;;;34.41;34.88
2785;BME280;57944;48.722;9.316;2023-05-22T10:01:31;97725.00;;;34.50;34.55
2785;BME280;57944;48.722;9.316;2023-05-22T10:04:04;97719.97;;;34.18;35.60
2785;BME280;57944;48.722;9.316;2023-05-22T10:06:35;97721.00;;;34.36;34.56
2785;BME280;57944;48.722;9.316;2023-05-22T10:09:11;97716.66;;;35.04;33.72
2785;BME280;57944;48.722;9.316;2023-05-22T10:11:47;97720.97;;;34.59;34.26
2785;BME280;57944;48.722;9.316;2023-05-22T10:14:22;97724.53;;;33.36;34.92
2785;BME280;57944;48.722;9.316;2023-05-22T10:16:56;97715.25;;;34.84;33.39
2785;BME280;57944;48.722;9.316;2023-05-22T10:19:29;97714.63;;;35.99;31.71
2785;BME280;57944;48.722;9.316;2023-05-22T10:22:00;97721.75;;;36.36;30.99
2785;BME280;57944;48.722;9.316;2023-05-22T10:24:33;97713.97;;;37.48;29.44
2785;BME280;57944;48.722;9.316;2023-05-22T10:27:04;97708.06;;;35.86;31.64
2785;BME280;57944;48.722;9.316;2023-05-22T10:29:41;97707.47;;;35.58;31.69
2785;BME280;57944;48.722;9.316;2023-05-22T10:32:20;97711.75;;;36.66;30.48
2785;BME280;57944;48.722;9.316;2023-05-22T10:35:04;97711.78;;;34.80;33.60
2785;BME280;57944;48.722;9.316;2023-05-22T10:37:47;97704.56;;;34.50;33.17
2785;BME280;57944;48.722;9.316;2023-05-22T10:40:22;97703.00;;;34.19;34.47
2785;BME280;57944;48.722;9.316;2023-05-22T10:42:59;97702.09;;;34.61;34.19
2785;BME280;57944;48.722;9.316;2023-05-22T10:45:33;97694.56;;;34.63;33.74
2785;BME280;57944;48.722;9.316;2023-05-22T10:48:05;97694.31;;;33.76;34.95
2785;BME280;57944;48.722;9.316;2023-05-22T10:50:37;97688.75;;;33.19;35.09
2785;BME280;57944;48.722;9.316;2023-05-22T10:53:19;97690.50;;;34.69;33.39
2785;BME280;57944;48.722;9.316;2023-05-22T10:55:51;97683.72;;;36.14;30.94
2785;BME280;57944;48.722;9.316;2023-05-22T10:58:26;97680.13;;;36.47;30.81
2785;BME280;57944;48.722;9.316;2023-05-22T11:01:18;97681.69;;;38.43;28.32
2785;BME280;57944;48.722;9.316;2023-05-22T11:03:56;97680.88;;;36.51;30.12
2785;BME280;57944;48.722;9.316;2023-05-22T11:06:32;97679.03;;;36.55;30.16
2785;BME280;57944;48.722;9.316;2023-05-22T11:09:27;97672.78;;;36.92;29.67
2785;BME280;57944;48.722;9.316;2023-05-22T11:12:17;97671.94;;;36.11;30.56
2785;BME280;57944;48.722;9.316;2023-05-22T11:14:54;97670.72;;;36.57;29.95
2785;BME280;57944;48.722;9.316;2023-05-22T11:17:29;97667.66;;;38.07;28.09
2785;BME280;57944;48.722;9.316;2023-05-22T11:20:01;97660.84;;;36.61;30.11
2785;BME280;57944;48.722;9.316;2023-05-22T11:22:35;97662.47;;;36.14;30.74
2785;BME280;57944;48.722;9.316;2023-05-22T11:25:13;97660.72;;;37.23;30.13
2785;BME280;57944;48.722;9.316;2023-05-22T11:27:45;97658.88;;;38.42;28.79
2785;BME280;57944;48.722;9.316;2023-05-22T11:30:16;97651.69;;;37.99;29.01
2785;BME280;57944;48.722;9.316;2023-05-22T11:32:50;97644.09;;;37.51;28.66
2785;BME280;57944;48.722;9.316;2023-05-22T11:35:21;97648.97;;;36.44;30.21
2785;BME280;57944;48.722;9.316;2023-05-22T11:37:53;97645.56;;;35.85;30.06
2785;BME280;57944;48.722;9.316;2023-05-22T11:40:26;97639.16;;;33.74;33.15
2785;BME280;57944;48.722;9.316;2023-05-22T11:42:57;97632.59;;;35.35;30.74
2785;BME280;57944;48.722;9.316;2023-05-22T11:45:30;97635.53;;;36.08;29.87
2785;BME280;57944;48.722;9.316;2023-05-22T11:48:04;97635.13;;;36.76;29.26
2785;BME280;57944;48.722;9.316;2023-05-22T11:50:34;97619.56;;;34.55;31.51
2785;BME280;57944;48.722;9.316;2023-05-22T11:53:09;97616.44;;;34.19;32.32
2785;BME280;57944;48.722;9.316;2023-05-22T11:55:42;97617.59;;;35.09;32.19
2785;BME280;57944;48.722;9.316;2023-05-22T11:58:12;97621.44;;;34.85;31.55
2785;BME280;57944;48.722;9.316;2023-05-22T12:00:45;97619.41;;;35.42;30.99
2785;BME280;57944;48.722;9.316;2023-05-22T12:03:18;97615.69;;;34.76;30.63
2785;BME280;57944;48.722;9.316;2023-05-22T12:05:52;97613.84;;;33.96;31.61
2785;BME280;57944;48.722;9.316;2023-05-22T12:08:24;97609.66;;;34.79;30.40
2785;BME280;57944;48.722;9.316;2023-05-22T12:10:55;97604.63;;;34.40;29.53
2785;BME280;57944;48.722;9.316;2023-05-22T12:13:26;97614.44;;;33.63;30.75
2785;BME280;57944;48.722;9.316;2023-05-22T12:15:59;97614.44;;;33.86;31.69
2785;BME280;57944;48.722;9.316;2023-05-22T12:18:37;97610.25;;;33.62;33.12
2785;BME280;57944;48.722;9.316;2023-05-22T12:21:10;97615.63;;;34.42;31.79
2785;BME280;57944;48.722;9.316;2023-05-22T12:23:47;97612.03;;;35.21;30.05
2785;BME280;57944;48.722;9.316;2023-05-22T12:26:19;97611.69;;;34.59;31.20
2785;BME280;57944;48.722;9.316;2023-05-22T12:28:52;97612.84;;;35.29;30.29
2785;BME280;57944;48.722;9.316;2023-05-22T12:31:22;97617.88;;;36.41;28.55
2785;BME280;57944;48.722;9.316;2023-05-22T12:33:56;97608.97;;;36.88;27.97
2785;BME280;57944;48.722;9.316;2023-05-22T12:36:34;97608.31;;;37.09;27.36
2785;BME280;57944;48.722;9.316;2023-05-22T12:39:07;97616.53;;;36.76;27.00
2785;BME280;57944;48.722;9.316;2023-05-22T12:41:38;97618.22;;;36.36;27.76
2785;BME280;57944;48.722;9.316;2023-05-22T12:44:09;97610.66;;;37.58;27.01
2785;BME280;57944;48.722;9.316;2023-05-22T12:46:40;97613.63;;;38.31;25.57
2785;BME280;57944;48.722;9.316;2023-05-22T12:49:14;97619.63;;;36.99;26.98
2785;BME280;57944;48.722;9.316;2023-05-22T12:51:44;97620.84;;;36.25;29.53
2785;BME280;57944;48.722;9.316;2023-05-22T12:54:15;97618.94;;;37.09;28.11
2785;BME280;57944;48.722;9.316;2023-05-22T12:56:45;97612.56;;;35.38;29.46
2785;BME280;57944;48.722;9.316;2023-05-22T12:59:16;97610.72;;;34.74;30.58
2785;BME280;57944;48.722;9.316;2023-05-22T13:01:47;97601.34;;;35.55;30.20
2785;BME280;57944;48.722;9.316;2023-05-22T13:04:20;97612.72;;;36.00;29.34
2785;BME280;57944;48.722;9.316;2023-05-22T13:06:51;97599.81;;;36.68;29.12
2785;BME280;57944;48.722;9.316;2023-05-22T13:09:21;97598.41;;;38.32;27.84
2785;BME280;57944;48.722;9.316;2023-05-22T13:11:53;97593.16;;;37.39;28.33
2785;BME280;57944;48.722;9.316;2023-05-22T13:14:24;97593.56;;;37.62;28.85
2785;BME280;57944;48.722;9.316;2023-05-22T13:16:55;97579.16;;;35.26;32.12
2785;BME280;57944;48.722;9.316;2023-05-22T13:19:29;97574.88;;;34.20;33.01
2785;BME280;57944;48.722;9.316;2023-05-22T13:22:00;97579.00;;;35.08;32.62
2785;BME280;57944;48.722;9.316;2023-05-22T13:24:31;97581.16;;;35.88;31.33
2785;BME280;57944;48.722;9.316;2023-05-22T13:27:02;97577.81;;;36.67;30.17
2785;BME280;57944;48.722;9.316;2023-05-22T13:29:33;97579.50;;;37.22;29.10
2785;BME280;57944;48.722;9.316;2023-05-22T13:32:04;97579.50;;;37.40;28.19
2785;BME280;57944;48.722;9.316;2023-05-22T13:34:38;97590.13;;;36.24;29.68
2785;BME280;57944;48.722;9.316;2023-05-22T13:37:09;97586.81;;;35.38;30.65
2785;BME280;57944;48.722;9.316;2023-05-22T13:39:39;97589.97;;;34.76;31.27
2785;BME280;57944;48.722;9.316;2023-05-22T13:42:10;97585.53;;;33.74;32.36